Time;durP1;ratioP1;P1;durP2;ratioP2;P2;SDS_P1;SDS_P2;PMS_P1;PMS_P2;Temp;Humidity;BMP_temperature;BMP_pressure;BME280_temperature;BME280_humidity;BME280_pressure;Samples;Min_cycle;Max_cycle;Signal;HPM_P1;HPM_P2
2021/06/06 00:00:40;;;;;;;6.05;2.40;;;16.30;99.90;;;;;;4954628;28;20070;-87
2021/06/06 00:03:11;;;;;;;5.03;2.15;;;16.20;99.90;;;;;;4963040;28;20071;-87
2021/06/06 00:06:09;;;;;;;5.57;1.85;;;16.20;99.90;;;;;;4953770;28;20436;-88
2021/06/06 00:08:37;;;;;;;5.45;1.85;;;16.20;99.90;;;;;;4959864;28;20035;-87
2021/06/06 00:11:07;;;;;;;5.95;1.98;;;16.10;99.90;;;;;;4956016;28;20518;-87
2021/06/06 00:13:38;;;;;;;7.65;2.03;;;16.10;99.90;;;;;;4958387;28;20019;-88
2021/06/06 00:16:05;;;;;;;5.15;2.30;;;16.00;99.90;;;;;;4956025;28;20126;-87
2021/06/06 00:18:31;;;;;;;4.60;2.00;;;16.00;99.90;;;;;;4960982;28;20105;-87
2021/06/06 00:20:56;;;;;;;5.85;2.40;;;16.10;99.90;;;;;;4956194;28;20110;-88
2021/06/06 00:23:22;;;;;;;5.65;2.13;;;16.00;99.90;;;;;;4962602;28;20065;-87
2021/06/06 00:25:48;;;;;;;5.65;2.00;;;16.00;99.90;;;;;;4955833;28;20567;-87
2021/06/06 00:28:14;;;;;;;6.03;2.13;;;16.00;99.90;;;;;;4965522;28;20023;-87
2021/06/06 00:30:40;;;;;;;11.02;2.72;;;16.00;99.90;;;;;;4955906;28;20027;-86
2021/06/06 00:33:06;;;;;;;6.63;2.95;;;16.00;99.90;;;;;;4962492;28;20019;-87
2021/06/06 00:35:32;;;;;;;4.97;2.47;;;16.00;99.90;;;;;;4957697;28;20098;-87
2021/06/06 00:37:58;;;;;;;4.00;2.05;;;15.90;99.90;;;;;;4964899;28;20183;-87
2021/06/06 00:40:27;;;;;;;6.57;2.15;;;15.90;99.90;;;;;;4959853;28;20156;-87
2021/06/06 00:42:54;;;;;;;7.20;2.17;;;15.90;99.90;;;;;;4959718;28;20043;-87
2021/06/06 00:45:24;;;;;;;6.78;2.15;;;15.80;99.90;;;;;;4962003;28;20018;-87
2021/06/06 00:47:50;;;;;;;6.78;2.40;;;15.90;99.90;;;;;;4965209;28;20035;-87
2021/06/06 00:50:24;;;;;;;5.90;2.20;;;15.80;99.90;;;;;;4963394;28;20023;-88
2021/06/06 00:52:53;;;;;;;4.53;2.30;;;15.70;99.90;;;;;;4964787;28;20023;-87
2021/06/06 00:55:19;;;;;;;5.43;2.40;;;15.70;99.90;;;;;;4963750;28;20026;-87
2021/06/06 00:57:45;;;;;;;4.68;2.15;;;15.70;99.90;;;;;;4944488;28;20062;-88
2021/06/06 01:00:29;;;;;;;3.50;2.35;;;15.70;99.90;;;;;;4965455;28;20185;-87
2021/06/06 01:02:55;;;;;;;6.28;2.38;;;15.70;99.90;;;;;;4963652;28;20416;-87
2021/06/06 01:05:29;;;;;;;4.93;2.22;;;15.70;99.90;;;;;;4962323;28;20015;-88
2021/06/06 01:07:55;;;;;;;8.23;2.70;;;15.70;99.90;;;;;;4963434;28;20041;-87
2021/06/06 01:10:21;;;;;;;6.88;2.58;;;15.60;99.90;;;;;;4953746;28;20019;-87
2021/06/06 01:13:03;;;;;;;3.30;2.30;;;15.60;99.90;;;;;;4959815;28;20035;-87
2021/06/06 01:15:34;;;;;;;8.65;2.78;;;15.60;99.90;;;;;;4952700;29;20031;-87
2021/06/06 01:18:26;;;;;;;4.63;2.15;;;15.50;99.90;;;;;;4962523;28;20045;-87
2021/06/06 01:21:13;;;;;;;6.15;2.95;;;15.50;99.90;;;;;;4954706;28;20039;-88
2021/06/06 01:23:38;;;;;;;4.70;2.22;;;15.40;99.90;;;;;;4963572;28;20097;-87
2021/06/06 01:26:16;;;;;;;9.35;3.15;;;15.40;99.90;;;;;;4957641;28;20519;-87
2021/06/06 01:29:06;;;;;;;5.43;2.40;;;15.40;99.90;;;;;;4967528;28;20066;-87
2021/06/06 01:31:35;;;;;;;7.53;2.90;;;15.30;99.90;;;;;;4957013;28;20113;-87
2021/06/06 01:34:05;;;;;;;6.15;2.67;;;15.30;99.90;;;;;;4955136;28;20030;-87
2021/06/06 01:36:49;;;;;;;5.63;2.80;;;15.20;99.90;;;;;;4957533;28;20027;-87
2021/06/06 01:39:20;;;;;;;6.03;2.47;;;15.20;99.90;;;;;;4946149;28;20519;-88
2021/06/06 01:41:52;;;;;;;5.00;2.45;;;15.20;99.90;;;;;;4965445;28;20035;-87
2021/06/06 01:44:23;;;;;;;5.32;2.85;;;15.20;99.90;;;;;;4958307;28;20047;-87
2021/06/06 01:46:53;;;;;;;7.85;2.88;;;15.20;99.90;;;;;;4957776;28;20019;-86
2021/06/06 01:49:20;;;;;;;10.25;3.42;;;15.20;99.90;;;;;;4961467;28;20335;-86
2021/06/06 01:51:54;;;;;;;6.93;3.00;;;15.10;99.90;;;;;;4965678;28;20419;-88
2021/06/06 01:54:22;;;;;;;7.80;2.97;;;15.10;99.90;;;;;;4961832;28;20392;-86
2021/06/06 01:56:51;;;;;;;6.57;3.00;;;15.10;99.90;;;;;;4956240;28;20050;-88
2021/06/06 01:59:23;;;;;;;6.40;2.83;;;15.10;99.90;;;;;;4958930;28;20031;-89
2021/06/06 02:01:49;;;;;;;8.05;3.60;;;15.10;99.90;;;;;;4955737;28;20036;-87
2021/06/06 02:04:16;;;;;;;5.85;3.00;;;15.10;99.90;;;;;;4958391;28;20029;-87
2021/06/06 02:07:13;;;;;;;4.90;2.60;;;15.10;99.90;;;;;;4954232;28;20047;-87
2021/06/06 02:09:53;;;;;;;6.38;2.95;;;15.10;99.90;;;;;;4954759;28;20118;-87
2021/06/06 02:12:23;;;;;;;5.43;2.92;;;15.00;99.90;;;;;;4954500;28;20035;-88
2021/06/06 02:14:49;;;;;;;4.70;2.58;;;15.00;99.90;;;;;;4957379;28;20031;-87
2021/06/06 02:17:29;;;;;;;6.88;3.00;;;15.00;99.90;;;;;;4956422;28;20045;-87
2021/06/06 02:19:56;;;;;;;12.38;3.45;;;15.00;99.90;;;;;;4958732;28;20369;-87
2021/06/06 02:22:23;;;;;;;7.50;3.15;;;15.00;99.90;;;;;;4957417;28;20467;-88
2021/06/06 02:24:49;;;;;;;8.43;2.97;;;15.00;99.90;;;;;;4960595;28;20022;-87
2021/06/06 02:27:21;;;;;;;7.00;3.10;;;15.00;99.90;;;;;;4958389;28;20035;-88
2021/06/06 02:29:58;;;;;;;9.32;3.40;;;15.00;99.90;;;;;;4961100;28;20054;-87
2021/06/06 02:32:30;;;;;;;6.00;2.90;;;15.00;99.90;;;;;;4960663;28;20038;-87
2021/06/06 02:35:07;;;;;;;8.45;3.45;;;15.00;99.90;;;;;;4962818;28;20388;-87
2021/06/06 02:37:57;;;;;;;5.75;2.97;;;14.90;99.90;;;;;;4955103;28;20028;-87
2021/06/06 02:40:36;;;;;;;8.57;3.40;;;14.90;99.90;;;;;;4956171;28;20512;-88
2021/06/06 02:43:10;;;;;;;7.20;2.90;;;14.90;99.90;;;;;;4953145;28;20129;-87
2021/06/06 02:45:36;;;;;;;;;;;14.90;99.90;;;;;;4963899;28;20027;-88
2021/06/06 02:48:09;;;;;;;6.95;3.15;;;14.90;99.90;;;;;;4962716;28;19989;-87
2021/06/06 02:50:39;;;;;;;7.32;3.63;;;14.90;99.90;;;;;;4963619;28;20027;-87
2021/06/06 02:53:15;;;;;;;7.53;3.28;;;14.90;99.90;;;;;;4948088;28;20517;-88
2021/06/06 02:55:45;;;;;;;9.73;3.50;;;14.80;99.90;;;;;;4962933;28;20535;-87
2021/06/06 02:58:31;;;;;;;5.82;3.15;;;14.80;99.90;;;;;;4961390;28;20492;-87
2021/06/06 03:01:15;;;;;;;7.30;3.70;;;14.80;99.90;;;;;;4956610;28;20035;-88
2021/06/06 03:03:43;;;;;;;10.45;3.30;;;14.80;99.90;;;;;;4962989;28;20031;-88
2021/06/06 03:06:15;;;;;;;8.75;3.30;;;14.80;99.90;;;;;;4956514;28;20034;-87
2021/06/06 03:08:41;;;;;;;10.77;3.92;;;14.80;99.90;;;;;;4963612;28;20516;-87
2021/06/06 03:11:09;;;;;;;8.48;3.50;;;14.80;99.90;;;;;;4957958;28;20054;-87
2021/06/06 03:14:00;;;;;;;10.30;4.13;;;14.80;99.90;;;;;;4964174;28;20029;-87
2021/06/06 03:16:29;;;;;;;9.57;3.40;;;14.70;99.90;;;;;;4957167;28;20023;-87
2021/06/06 03:18:56;;;;;;;8.13;3.40;;;14.70;99.90;;;;;;4965077;28;20031;-87
2021/06/06 03:21:40;;;;;;;7.45;3.75;;;14.60;99.90;;;;;;4956695;28;20035;-87
2021/06/06 03:24:11;;;;;;;10.48;3.60;;;14.60;99.90;;;;;;4960179;28;20312;-87
2021/06/06 03:26:38;;;;;;;9.38;3.42;;;14.60;99.90;;;;;;4956720;28;20028;-89
2021/06/06 03:29:07;;;;;;;9.82;3.55;;;14.60;99.90;;;;;;4968006;28;20094;-87
2021/06/06 03:31:38;;;;;;;9.52;3.80;;;14.50;99.90;;;;;;4956763;28;20103;-87
2021/06/06 03:34:06;;;;;;;11.80;3.95;;;14.50;99.90;;;;;;4959340;28;20034;-89
2021/06/06 03:36:35;;;;;;;8.70;3.58;;;14.50;99.90;;;;;;4958878;28;20019;-87
2021/06/06 03:39:04;;;;;;;9.63;4.00;;;14.50;99.90;;;;;;4963766;28;20145;-88
2021/06/06 03:41:30;;;;;;;9.40;3.97;;;14.50;99.90;;;;;;4955177;28;20038;-87
2021/06/06 03:43:56;;;;;;;9.13;4.40;;;14.50;99.90;;;;;;4970556;28;20031;-87
2021/06/06 03:46:26;;;;;;;7.65;4.07;;;14.50;99.90;;;;;;4958995;28;20033;-87
2021/06/06 03:48:53;;;;;;;8.05;4.00;;;14.50;99.90;;;;;;4965671;28;20023;-87
2021/06/06 03:51:19;;;;;;;8.35;4.05;;;14.50;99.90;;;;;;4960450;28;20023;-90
2021/06/06 03:53:45;;;;;;;7.20;4.00;;;14.50;99.90;;;;;;4959290;28;20031;-87
2021/06/06 03:56:12;;;;;;;8.80;4.43;;;14.50;99.90;;;;;;4955711;28;20043;-87
2021/06/06 03:58:38;;;;;;;9.60;3.90;;;14.50;99.90;;;;;;4958798;28;20030;-87
2021/06/06 04:01:06;;;;;;;8.13;3.92;;;14.40;99.90;;;;;;4959228;28;20094;-87
2021/06/06 04:03:32;;;;;;;9.00;4.32;;;14.40;99.90;;;;;;4951938;29;20075;-87
2021/06/06 04:05:58;;;;;;;12.20;4.47;;;14.30;99.90;;;;;;4954839;28;20419;-87
2021/06/06 04:08:24;;;;;;;10.20;4.68;;;14.30;99.90;;;;;;4962872;28;20026;-87
2021/06/06 04:10:50;;;;;;;11.00;4.43;;;14.30;99.90;;;;;;4954023;28;20019;-87
2021/06/06 04:13:17;;;;;;;11.50;4.15;;;14.30;99.90;;;;;;4959567;28;20028;-87
2021/06/06 04:15:43;;;;;;;8.25;3.80;;;14.30;99.90;;;;;;4953910;28;20058;-88
2021/06/06 04:18:25;;;;;;;12.05;4.22;;;14.30;99.90;;;;;;4961841;28;20023;-87
2021/06/06 04:20:52;;;;;;;8.85;4.10;;;14.30;99.90;;;;;;4959119;28;20117;-86
2021/06/06 04:23:19;;;;;;;9.85;4.88;;;14.30;99.90;;;;;;4963153;28;20591;-90
2021/06/06 04:25:45;;;;;;;6.68;3.95;;;14.30;99.90;;;;;;4960801;28;20027;-87
2021/06/06 04:28:11;;;;;;;9.23;4.50;;;14.40;99.90;;;;;;4958158;28;20023;-87
2021/06/06 04:30:38;;;;;;;11.15;4.43;;;14.40;99.90;;;;;;4954011;28;20031;-88
2021/06/06 04:33:08;;;;;;;11.27;4.25;;;14.40;99.90;;;;;;4962000;28;20476;-87
2021/06/06 04:35:39;;;;;;;9.23;4.55;;;14.40;99.90;;;;;;4953998;28;20011;-87
2021/06/06 04:38:07;;;;;;;8.73;4.68;;;14.40;99.90;;;;;;4946610;28;20038;-87
2021/06/06 04:40:33;;;;;;;7.97;4.30;;;14.40;99.90;;;;;;4953911;28;20051;-87
2021/06/06 04:43:00;;;;;;;11.43;4.20;;;14.30;99.90;;;;;;4971074;28;20071;-87
2021/06/06 04:45:26;;;;;;;12.43;4.82;;;14.40;99.90;;;;;;4953761;28;20023;-89
2021/06/06 04:47:52;;;;;;;11.32;4.95;;;14.40;99.90;;;;;;4957489;28;20034;-87
2021/06/06 04:50:18;;;;;;;5.63;4.18;;;14.40;99.90;;;;;;4954302;28;20023;-87
2021/06/06 04:52:44;;;;;;;8.48;4.60;;;14.40;99.90;;;;;;4956233;28;20034;-87
2021/06/06 04:55:19;;;;;;;11.13;4.25;;;14.40;99.90;;;;;;4956124;28;20019;-87
2021/06/06 04:57:45;;;;;;;11.07;5.07;;;14.50;99.90;;;;;;4954381;28;20050;-87
2021/06/06 05:00:16;;;;;;;13.15;4.57;;;14.50;99.90;;;;;;4953041;28;20031;-87
2021/06/06 05:02:42;;;;;;;8.77;4.05;;;14.50;99.90;;;;;;4954567;28;20054;-88
2021/06/06 05:05:09;;;;;;;10.05;4.70;;;14.50;99.90;;;;;;4958115;28;20024;-88
2021/06/06 05:07:35;;;;;;;11.05;5.05;;;14.50;99.90;;;;;;4956000;28;20129;-88
2021/06/06 05:10:03;;;;;;;8.20;4.32;;;14.60;99.90;;;;;;4958532;28;20043;-87
2021/06/06 05:12:28;;;;;;;13.05;4.82;;;14.60;99.90;;;;;;4955161;28;20452;-87
2021/06/06 05:14:54;;;;;;;11.85;5.25;;;14.60;99.90;;;;;;4953573;28;20074;-88
2021/06/06 05:17:20;;;;;;;8.55;4.65;;;14.60;99.90;;;;;;4975043;28;20496;-88
2021/06/06 05:19:45;;;;;;;9.25;4.90;;;14.60;99.90;;;;;;4953336;28;20074;-88
2021/06/06 05:22:11;;;;;;;10.10;4.50;;;14.70;99.90;;;;;;4957634;28;20035;-87
2021/06/06 05:24:37;;;;;;;11.73;5.03;;;14.70;99.90;;;;;;4952974;28;20035;-89
2021/06/06 05:27:04;;;;;;;10.77;4.40;;;14.80;99.90;;;;;;4957606;28;20058;-88
2021/06/06 05:29:30;;;;;;;11.30;4.75;;;14.80;99.90;;;;;;4952777;28;20480;-88
2021/06/06 05:31:56;;;;;;;8.50;4.88;;;14.90;99.90;;;;;;4971419;28;20038;-87
2021/06/06 05:34:22;;;;;;;8.75;4.55;;;14.90;99.90;;;;;;4954747;28;20098;-87
2021/06/06 05:36:48;;;;;;;9.88;5.03;;;15.00;99.90;;;;;;4955373;28;20480;-88
2021/06/06 05:39:14;;;;;;;9.35;5.13;;;15.00;99.90;;;;;;4957159;28;20027;-88
2021/06/06 05:41:40;;;;;;;9.73;5.38;;;15.10;99.90;;;;;;4956404;28;20081;-88
2021/06/06 05:44:06;;;;;;;7.97;4.93;;;15.10;99.90;;;;;;4966721;28;20500;-88
2021/06/06 05:46:33;;;;;;;14.20;4.82;;;15.20;99.90;;;;;;4952290;28;20054;-88
2021/06/06 05:48:59;;;;;;;9.93;4.30;;;15.30;99.90;;;;;;4959345;28;20031;-88
2021/06/06 05:51:24;;;;;;;10.65;4.85;;;15.30;99.90;;;;;;4955261;28;20095;-90
2021/06/06 05:53:52;;;;;;;9.30;4.38;;;15.30;99.90;;;;;;4952402;28;20031;-88
2021/06/06 05:56:18;;;;;;;12.43;4.80;;;15.30;99.90;;;;;;4953585;28;20039;-87
2021/06/06 05:58:44;;;;;;;7.30;4.10;;;15.40;99.90;;;;;;4960235;28;20031;-87
2021/06/06 06:01:10;;;;;;;10.70;4.22;;;15.60;99.90;;;;;;4955340;28;20027;-88
2021/06/06 06:03:36;;;;;;;9.38;4.10;;;15.60;99.90;;;;;;4955096;28;20050;-88
2021/06/06 06:06:02;;;;;;;9.40;4.22;;;15.70;99.90;;;;;;4953630;28;20015;-87
2021/06/06 06:08:32;;;;;;;10.25;3.70;;;15.90;99.90;;;;;;4969129;28;20027;-87
2021/06/06 06:10:58;;;;;;;7.05;3.80;;;15.90;99.90;;;;;;4939559;28;20039;-87
2021/06/06 06:13:27;;;;;;;8.73;3.70;;;16.00;99.90;;;;;;4956394;28;20031;-88
2021/06/06 06:15:54;;;;;;;7.10;3.72;;;16.10;99.90;;;;;;4955939;28;20047;-88
2021/06/06 06:18:23;;;;;;;7.00;3.45;;;16.20;99.90;;;;;;4960737;28;20024;-88
2021/06/06 06:20:49;;;;;;;11.75;4.30;;;16.20;99.90;;;;;;4955239;28;20034;-88
2021/06/06 06:23:15;;;;;;;8.95;3.80;;;16.30;99.90;;;;;;4958925;28;20066;-88
2021/06/06 06:25:41;;;;;;;6.35;3.75;;;16.30;99.90;;;;;;4955907;28;20094;-87
2021/06/06 06:28:07;;;;;;;8.13;3.42;;;16.40;99.90;;;;;;4963355;28;20070;-93
2021/06/06 06:30:36;;;;;;;9.32;3.35;;;16.50;99.90;;;;;;4959570;28;20074;-89
2021/06/06 06:33:02;;;;;;;8.20;3.58;;;16.60;99.90;;;;;;4962115;28;20050;-89
2021/06/06 06:35:29;;;;;;;7.90;3.05;;;16.70;99.90;;;;;;4953901;29;20201;-88
2021/06/06 06:37:55;;;;;;;6.45;3.20;;;16.70;99.90;;;;;;4947560;28;20031;-88
2021/06/06 06:40:22;;;;;;;5.93;2.83;;;16.70;99.90;;;;;;4953463;29;20267;-88
2021/06/06 06:42:49;;;;;;;5.30;3.45;;;16.80;99.90;;;;;;4956731;28;20466;-88
2021/06/06 06:45:21;;;;;;;6.47;3.10;;;16.90;99.90;;;;;;4955672;28;20102;-88
2021/06/06 06:47:47;;;;;;;8.43;4.00;;;17.00;99.90;;;;;;4961172;28;20046;-88
2021/06/06 06:50:16;;;;;;;7.80;3.15;;;17.00;99.90;;;;;;4955486;28;20026;-88
2021/06/06 06:52:41;;;;;;;5.88;3.13;;;17.10;99.90;;;;;;4955665;28;20035;-88
2021/06/06 06:55:12;;;;;;;6.72;3.00;;;17.20;99.90;;;;;;4966639;28;20020;-88
2021/06/06 06:57:38;;;;;;;5.30;2.60;;;17.30;99.90;;;;;;4960904;28;20052;-88
2021/06/06 07:00:07;;;;;;;7.28;3.05;;;17.40;99.90;;;;;;4956589;28;20403;-89
2021/06/06 07:02:32;;;;;;;6.45;3.13;;;17.40;99.90;;;;;;4963465;28;20562;-89
2021/06/06 07:05:02;;;;;;;8.82;2.92;;;17.50;99.90;;;;;;4959754;28;20028;-89
2021/06/06 07:07:28;;;;;;;6.78;2.55;;;17.60;99.90;;;;;;4965286;28;20026;-89
2021/06/06 07:09:53;;;;;;;7.70;2.60;;;17.70;99.90;;;;;;4956996;28;20115;-89
2021/06/06 07:12:19;;;;;;;6.22;2.92;;;17.80;99.90;;;;;;4963464;28;20042;-89
2021/06/06 07:14:45;;;;;;;7.40;2.55;;;17.90;99.90;;;;;;4954945;28;20031;-89
2021/06/06 07:17:10;;;;;;;4.97;2.63;;;17.90;99.90;;;;;;4958034;28;20039;-86
2021/06/06 07:19:36;;;;;;;5.43;2.40;;;18.10;99.90;;;;;;4953028;29;20524;-87
2021/06/06 07:22:02;;;;;;;5.82;2.53;;;18.10;99.90;;;;;;4959364;28;20052;-88
2021/06/06 07:24:28;;;;;;;7.07;2.58;;;18.20;99.90;;;;;;4954378;28;20030;-87
2021/06/06 07:26:54;;;;;;;4.95;2.20;;;18.30;99.90;;;;;;4959250;28;20031;-87
2021/06/06 07:29:24;;;;;;;3.80;2.25;;;18.40;99.90;;;;;;4954538;28;20090;-87
2021/06/06 07:31:54;;;;;;;7.43;3.15;;;18.50;99.90;;;;;;4957661;28;20039;-87
2021/06/06 07:34:20;;;;;;;7.15;2.40;;;18.60;99.90;;;;;;4957387;28;20059;-87
2021/06/06 07:36:46;;;;;;;4.85;2.22;;;18.70;99.90;;;;;;4956541;28;20062;-86
2021/06/06 07:39:13;;;;;;;6.15;2.22;;;18.70;99.90;;;;;;4959069;28;20433;-87
2021/06/06 07:41:39;;;;;;;4.97;2.33;;;18.80;99.90;;;;;;4958136;28;20035;-87
2021/06/06 07:44:08;;;;;;;7.85;2.38;;;18.90;99.90;;;;;;4955018;28;20407;-88
2021/06/06 07:46:33;;;;;;;6.50;2.15;;;19.00;99.90;;;;;;4958609;28;20054;-87
2021/06/06 07:49:00;;;;;;;6.50;2.35;;;19.10;99.90;;;;;;4967771;28;20118;-87
2021/06/06 07:51:25;;;;;;;4.22;1.77;;;19.20;99.90;;;;;;4955673;28;20031;-87
2021/06/06 07:53:51;;;;;;;6.03;1.83;;;19.30;99.90;;;;;;4954966;28;20020;-87
2021/06/06 07:56:17;;;;;;;6.43;2.00;;;19.30;99.90;;;;;;4956105;28;20403;-87
2021/06/06 07:58:43;;;;;;;4.63;1.42;;;19.40;99.90;;;;;;4953842;28;20499;-87
2021/06/06 08:01:11;;;;;;;4.78;1.85;;;19.50;99.80;;;;;;4957309;28;20033;-87
2021/06/06 08:03:37;;;;;;;3.92;1.60;;;19.70;99.70;;;;;;4955801;28;20027;-87
2021/06/06 08:06:05;;;;;;;3.53;2.00;;;19.70;99.00;;;;;;4956062;28;20507;-88
2021/06/06 08:08:31;;;;;;;5.40;2.30;;;19.80;99.40;;;;;;4964256;28;20031;-87
2021/06/06 08:11:00;;;;;;;5.85;1.83;;;19.90;99.70;;;;;;4958602;28;20498;-89
2021/06/06 08:13:26;;;;;;;3.92;1.80;;;20.00;99.50;;;;;;4975317;28;20032;-87
2021/06/06 08:15:52;;;;;;;4.65;1.80;;;20.00;98.70;;;;;;4958187;28;20031;-87
2021/06/06 08:18:24;;;;;;;5.00;1.80;;;20.10;98.30;;;;;;4963017;28;20093;-87
2021/06/06 08:20:53;;;;;;;4.45;1.70;;;20.20;99.10;;;;;;4959832;28;20468;-87
2021/06/06 08:23:19;;;;;;;9.48;1.63;;;20.30;97.70;;;;;;4961164;28;20668;-87
2021/06/06 08:25:45;;;;;;;3.40;1.52;;;20.40;97.60;;;;;;4960934;28;20319;-87
2021/06/06 08:28:13;;;;;;;3.55;1.80;;;20.40;97.30;;;;;;4962455;28;20014;-87
2021/06/06 08:30:43;;;;;;;5.90;1.60;;;20.50;98.70;;;;;;4954257;28;20146;-87
2021/06/06 08:33:10;;;;;;;3.70;1.90;;;20.60;97.20;;;;;;4960656;28;20034;-88
2021/06/06 08:35:36;;;;;;;3.38;1.55;;;20.60;96.10;;;;;;4964842;28;20050;-88
2021/06/06 08:38:02;;;;;;;5.05;1.52;;;20.70;95.80;;;;;;4965621;28;20089;-87
2021/06/06 08:40:55;;;;;;;4.05;1.52;;;20.80;95.60;;;;;;4957323;28;20073;-87
2021/06/06 08:43:25;;;;;;;2.85;1.33;;;20.80;95.60;;;;;;4962666;28;20503;-87
2021/06/06 08:45:57;;;;;;;4.68;1.60;;;20.80;94.10;;;;;;4956974;28;20034;-87
2021/06/06 08:48:24;;;;;;;3.42;1.52;;;20.90;94.30;;;;;;4964756;28;20019;-87
2021/06/06 08:51:00;;;;;;;3.13;1.30;;;21.00;93.70;;;;;;4954635;28;20023;-87
2021/06/06 08:53:29;;;;;;;3.20;1.10;;;21.10;94.30;;;;;;4963127;28;20045;-87
2021/06/06 08:56:15;;;;;;;2.65;1.50;;;21.20;93.80;;;;;;4953429;28;20090;-87
2021/06/06 08:59:05;;;;;;;2.45;1.30;;;21.30;93.90;;;;;;4962431;28;20046;-87
2021/06/06 09:01:34;;;;;;;4.60;1.30;;;21.30;91.60;;;;;;4958527;28;20052;-87
2021/06/06 09:04:05;;;;;;;3.88;1.20;;;21.30;91.40;;;;;;4963908;28;20384;-87
2021/06/06 09:06:50;;;;;;;1.85;1.30;;;21.30;92.10;;;;;;4954989;28;20035;-87
2021/06/06 09:09:17;;;;;;;3.38;1.40;;;21.40;92.00;;;;;;4960215;28;20085;-88
2021/06/06 09:11:44;;;;;;;3.03;1.10;;;21.40;91.10;;;;;;4955549;28;20400;-87
2021/06/06 09:14:10;;;;;;;3.25;1.10;;;21.50;85.90;;;;;;4958061;28;20035;-87
2021/06/06 09:17:09;;;;;;;4.68;1.10;;;21.50;85.40;;;;;;4955895;28;20031;-87
2021/06/06 09:19:52;;;;;;;3.60;1.50;;;21.50;86.60;;;;;;4951711;28;20126;-87
2021/06/06 09:22:37;;;;;;;3.35;1.60;;;21.60;88.70;;;;;;4960785;28;20101;-88
2021/06/06 09:25:18;;;;;;;2.33;1.17;;;21.50;86.90;;;;;;4967679;28;20102;-87
2021/06/06 09:27:44;;;;;;;3.13;1.30;;;21.20;87.90;;;;;;4964139;28;20578;-87
2021/06/06 09:30:16;;;;;;;2.90;1.15;;;21.10;88.20;;;;;;4962869;28;20027;-88
2021/06/06 09:32:43;;;;;;;2.80;1.08;;;21.10;89.80;;;;;;4960924;28;20023;-88
2021/06/06 09:35:30;;;;;;;3.30;1.48;;;21.00;89.90;;;;;;4963588;28;20027;-87
2021/06/06 09:38:02;;;;;;;4.03;1.38;;;20.80;91.20;;;;;;4962027;28;20091;-88
2021/06/06 09:40:51;;;;;;;3.45;1.25;;;20.70;91.20;;;;;;4964030;28;20102;-87
2021/06/06 09:43:30;;;;;;;2.33;1.20;;;20.60;90.00;;;;;;4961997;28;20097;-87
2021/06/06 09:46:13;;;;;;;2.55;1.25;;;20.70;89.70;;;;;;4959195;28;20051;-87
2021/06/06 09:48:43;;;;;;;3.50;1.50;;;20.90;89.90;;;;;;4963398;28;20035;-87
2021/06/06 09:51:31;;;;;;;3.97;1.30;;;21.20;90.20;;;;;;4961604;28;20271;-88
2021/06/06 09:54:30;;;;;;;2.72;1.02;;;21.40;89.50;;;;;;4955660;28;20019;-87
2021/06/06 09:57:03;;;;;;;4.40;1.58;;;21.50;91.30;;;;;;4959496;28;20070;-87
2021/06/06 09:59:32;;;;;;;3.08;1.35;;;21.50;89.90;;;;;;4968271;28;20134;-87
2021/06/06 10:02:10;;;;;;;3.33;1.30;;;21.50;88.50;;;;;;4956491;28;20039;-87
2021/06/06 10:04:38;;;;;;;2.08;1.10;;;21.40;88.30;;;;;;4957601;28;20258;-88
2021/06/06 10:07:26;;;;;;;2.80;1.42;;;21.30;87.80;;;;;;4970963;28;20533;-88
2021/06/06 10:09:54;;;;;;;2.28;1.00;;;21.30;90.20;;;;;;4958997;28;20037;-88
2021/06/06 10:12:22;;;;;;;3.15;1.35;;;21.50;90.40;;;;;;4957056;28;20051;-88
2021/06/06 10:14:51;;;;;;;2.60;0.98;;;21.80;86.20;;;;;;4971632;28;20019;-87
2021/06/06 10:17:47;;;;;;;4.32;1.00;;;21.90;80.40;;;;;;4961068;28;20034;-88
2021/06/06 10:20:27;;;;;;;5.15;1.20;;;21.90;83.20;;;;;;4946153;28;20050;-87
2021/06/06 10:22:59;;;;;;;3.83;1.33;;;21.80;82.50;;;;;;4957759;28;20027;-91
2021/06/06 10:25:47;;;;;;;2.33;1.13;;;21.70;84.00;;;;;;4958886;28;20034;-87
2021/06/06 10:28:18;;;;;;;2.88;1.02;;;21.70;83.60;;;;;;4975061;28;20030;-89
2021/06/06 10:30:57;;;;;;;2.20;1.13;;;22.00;82.00;;;;;;4957159;28;20495;-89
2021/06/06 10:33:34;;;;;;;2.55;1.00;;;22.20;82.50;;;;;;4950535;28;20129;-89
2021/06/06 10:36:00;;;;;;;2.33;1.00;;;22.10;81.30;;;;;;4952092;28;20054;-89
2021/06/06 10:38:27;;;;;;;2.55;1.20;;;22.20;82.80;;;;;;4964403;28;20038;-89
2021/06/06 10:40:56;;;;;;;1.95;1.10;;;22.40;82.00;;;;;;4958483;28;20147;-89
2021/06/06 10:43:28;;;;;;;3.83;1.80;;;22.60;85.10;;;;;;4965825;28;20034;-89
2021/06/06 10:46:17;;;;;;;2.90;1.20;;;22.60;76.60;;;;;;4956147;28;20071;-89
2021/06/06 10:49:07;;;;;;;3.80;1.10;;;22.60;77.40;;;;;;4952443;28;20102;-90
2021/06/06 10:51:54;;;;;;;3.45;2.20;;;22.70;76.90;;;;;;4967135;28;20027;-93
2021/06/06 10:54:44;;;;;;;4.30;2.45;;;22.70;79.70;;;;;;4967727;28;20067;-95
2021/06/06 10:57:25;;;;;;;4.90;1.45;;;22.40;79.80;;;;;;4954028;28;20067;-90
2021/06/06 11:00:00;;;;;;;2.58;1.30;;;22.30;79.50;;;;;;4955262;28;20106;-90
2021/06/06 11:02:39;;;;;;;2.85;1.20;;;22.40;78.70;;;;;;4967247;28;20035;-89
2021/06/06 11:05:26;;;;;;;3.58;1.50;;;22.40;76.90;;;;;;4956988;28;20066;-91
2021/06/06 11:07:52;;;;;;;3.25;1.50;;;22.50;77.60;;;;;;4957405;28;20077;-93
2021/06/06 11:10:20;;;;;;;4.38;1.70;;;22.40;78.50;;;;;;4955995;28;20551;-93
2021/06/06 11:12:49;;;;;;;4.95;2.42;;;22.40;78.10;;;;;;4960765;28;20038;-90
2021/06/06 11:15:39;;;;;;;7.97;3.97;;;22.60;78.60;;;;;;4962475;28;20051;-89
2021/06/06 11:18:17;;;;;;;5.05;2.03;;;23.00;78.90;;;;;;4949576;28;20046;-93
2021/06/06 11:20:52;;;;;;;4.18;1.60;;;23.10;77.20;;;;;;4957856;28;20034;-89
2021/06/06 11:23:39;;;;;;;4.30;2.30;;;23.10;76.40;;;;;;4964802;28;20077;-94
2021/06/06 11:26:30;;;;;;;2.80;1.52;;;22.90;77.00;;;;;;4968971;28;20535;-89
2021/06/06 11:29:21;;;;;;;5.13;2.90;;;22.90;78.20;;;;;;4955506;28;20117;-91
2021/06/06 11:32:14;;;;;;;6.82;3.28;;;23.20;78.80;;;;;;4961208;28;20034;-90
2021/06/06 11:35:09;;;;;;;4.57;1.65;;;23.30;79.00;;;;;;4970696;28;20085;-89
2021/06/06 11:37:37;;;;;;;;;;;23.00;76.30;;;;;;4960269;28;20074;-89
2021/06/06 11:40:25;;;;;;;4.95;2.15;;;22.90;77.20;;;;;;4956049;28;19930;-91
2021/06/06 11:42:56;;;;;;;6.38;2.22;;;22.60;77.90;;;;;;4955958;28;20086;-88
2021/06/06 11:45:32;;;;;;;4.65;2.42;;;22.70;78.30;;;;;;4954820;28;20019;-90
2021/06/06 11:48:06;;;;;;;6.45;2.90;;;22.90;77.00;;;;;;4952369;28;20042;-90
2021/06/06 11:50:49;;;;;;;7.57;3.53;;;23.10;77.70;;;;;;4955246;28;20022;-90
2021/06/06 11:53:26;;;;;;;8.63;4.55;;;23.40;75.70;;;;;;4953177;28;20436;-91
2021/06/06 11:55:56;;;;;;;6.20;3.58;;;23.70;74.50;;;;;;4971340;28;20035;-89
2021/06/06 11:58:34;;;;;;;4.97;2.70;;;23.80;72.30;;;;;;4947406;28;20503;-90
2021/06/06 12:01:16;;;;;;;2.40;1.42;;;24.00;72.60;;;;;;4945805;28;20028;-90
2021/06/06 12:03:46;;;;;;;4.53;1.77;;;24.30;70.60;;;;;;4957496;28;20102;-90
2021/06/06 12:06:26;;;;;;;4.90;1.65;;;24.20;71.00;;;;;;4953827;28;20042;-93
2021/06/06 12:09:12;;;;;;;8.55;2.17;;;23.90;69.40;;;;;;4954917;28;20027;-91
2021/06/06 12:11:38;;;;;;;4.78;1.52;;;23.70;72.40;;;;;;4957865;28;20034;-89
2021/06/06 12:14:15;;;;;;;4.38;1.80;;;23.50;74.20;;;;;;4959264;28;20488;-93
2021/06/06 12:16:48;;;;;;;5.35;1.60;;;23.70;74.90;;;;;;4967694;28;20550;-76
2021/06/06 12:19:16;;;;;;;11.18;2.25;;;23.70;72.40;;;;;;4958624;28;20050;-78
2021/06/06 12:21:45;;;;;;;4.05;1.98;;;23.70;72.20;;;;;;4955923;28;20035;-78
2021/06/06 12:24:24;;;;;;;6.55;3.05;;;23.70;71.40;;;;;;4955189;28;20031;-76
2021/06/06 12:26:52;;;;;;;4.63;2.22;;;23.80;71.90;;;;;;4953851;28;20565;-77
2021/06/06 12:29:32;;;;;;;3.40;1.80;;;24.00;71.80;;;;;;4952629;28;20031;-76
2021/06/06 12:32:07;;;;;;;4.72;1.58;;;24.00;73.00;;;;;;4953269;28;20023;-78
2021/06/06 12:34:33;;;;;;;4.97;1.98;;;23.90;73.60;;;;;;4952872;29;20050;-76
2021/06/06 12:37:01;;;;;;;5.82;1.95;;;23.80;75.70;;;;;;4956565;28;20027;-78
2021/06/06 12:39:28;;;;;;;5.75;2.05;;;23.80;73.50;;;;;;4952477;28;20503;-77
2021/06/06 12:41:56;;;;;;;3.40;1.77;;;23.60;75.10;;;;;;4958094;28;20030;-78
2021/06/06 12:44:30;;;;;;;6.43;2.05;;;23.50;74.10;;;;;;4961219;28;20028;-85
2021/06/06 12:47:02;;;;;;;5.47;2.25;;;23.60;73.30;;;;;;4962023;28;20613;-88
2021/06/06 12:49:41;;;;;;;4.45;1.60;;;23.50;69.90;;;;;;4950563;28;20114;-89
2021/06/06 12:52:28;;;;;;;4.30;1.77;;;23.60;69.20;;;;;;4956947;28;20118;-89
2021/06/06 12:54:55;;;;;;;4.82;2.15;;;23.80;72.60;;;;;;4978385;28;20106;-89
2021/06/06 12:57:31;;;;;;;6.45;2.05;;;24.00;70.60;;;;;;4956258;28;20142;-89
2021/06/06 13:00:35;;;;;;;5.70;1.98;;;24.00;71.50;;;;;;4951448;28;20062;-89
2021/06/06 13:03:03;;;;;;;3.55;1.58;;;24.20;73.20;;;;;;4942607;28;20515;-89
2021/06/06 13:05:35;;;;;;;6.00;1.75;;;24.50;69.10;;;;;;4967594;28;20387;-89
2021/06/06 13:08:05;;;;;;;3.58;1.60;;;24.80;69.70;;;;;;4964078;28;20643;-88